sensor_id;sensor_type;location;lat;lon;timestamp;P1;durP1;ratioP1;P2;durP2;ratioP2
4023;SDS011;2026;51.002;13.668;2024-02-14T00:04:29;4.67;;;2.53;;
4023;SDS011;2026;51.002;13.668;2024-02-14T00:09:32;3.80;;;2.80;;
4023;SDS011;2026;51.002;13.668;2024-02-14T00:14:35;5.13;;;2.40;;
4023;SDS011;2026;51.002;13.668;2024-02-14T00:19:39;6.37;;;2.73;;
4023;SDS011;2026;51.002;13.668;2024-02-14T00:24:42;3.43;;;2.53;;
4023;SDS011;2026;51.002;13.668;2024-02-14T00:29:45;2.60;;;2.23;;
4023;SDS011;2026;51.002;13.668;2024-02-14T00:34:49;7.03;;;2.60;;
4023;SDS011;2026;51.002;13.668;2024-02-14T00:39:53;4.67;;;2.30;;
4023;SDS011;2026;51.002;13.668;2024-02-14T00:44:57;4.67;;;2.27;;
4023;SDS011;2026;51.002;13.668;2024-02-14T00:50:01;2.50;;;2.03;;
4023;SDS011;2026;51.002;13.668;2024-02-14T00:55:05;2.30;;;2.10;;
4023;SDS011;2026;51.002;13.668;2024-02-14T01:00:08;4.37;;;2.60;;
4023;SDS011;2026;51.002;13.668;2024-02-14T01:05:13;4.40;;;2.40;;
4023;SDS011;2026;51.002;13.668;2024-02-14T01:10:16;5.00;;;3.00;;
4023;SDS011;2026;51.002;13.668;2024-02-14T01:15:20;3.80;;;2.20;;
4023;SDS011;2026;51.002;13.668;2024-02-14T01:20:24;2.60;;;1.90;;
4023;SDS011;2026;51.002;13.668;2024-02-14T01:25:27;3.67;;;2.27;;
4023;SDS011;2026;51.002;13.668;2024-02-14T01:30:30;3.00;;;2.00;;
4023;SDS011;2026;51.002;13.668;2024-02-14T01:35:35;3.13;;;2.00;;
4023;SDS011;2026;51.002;13.668;2024-02-14T01:40:38;5.30;;;3.10;;
4023;SDS011;2026;51.002;13.668;2024-02-14T01:45:41;6.30;;;3.70;;
4023;SDS011;2026;51.002;13.668;2024-02-14T01:50:45;3.57;;;2.63;;
4023;SDS011;2026;51.002;13.668;2024-02-14T01:55:49;2.90;;;2.20;;
4023;SDS011;2026;51.002;13.668;2024-02-14T02:00:52;1.97;;;1.70;;
4023;SDS011;2026;51.002;13.668;2024-02-14T02:05:59;2.20;;;1.90;;
4023;SDS011;2026;51.002;13.668;2024-02-14T02:11:03;3.07;;;2.27;;
4023;SDS011;2026;51.002;13.668;2024-02-14T02:16:06;2.60;;;1.90;;
4023;SDS011;2026;51.002;13.668;2024-02-14T02:21:11;2.60;;;1.80;;
4023;SDS011;2026;51.002;13.668;2024-02-14T02:26:16;2.10;;;1.60;;
4023;SDS011;2026;51.002;13.668;2024-02-14T02:31:19;2.33;;;1.80;;
4023;SDS011;2026;51.002;13.668;2024-02-14T02:36:22;3.70;;;2.20;;
4023;SDS011;2026;51.002;13.668;2024-02-14T02:41:26;4.83;;;2.07;;
4023;SDS011;2026;51.002;13.668;2024-02-14T02:46:29;4.53;;;2.20;;
4023;SDS011;2026;51.002;13.668;2024-02-14T02:51:32;3.73;;;1.83;;
4023;SDS011;2026;51.002;13.668;2024-02-14T02:56:37;2.87;;;2.03;;
4023;SDS011;2026;51.002;13.668;2024-02-14T03:01:40;2.53;;;1.90;;
4023;SDS011;2026;51.002;13.668;2024-02-14T03:06:42;3.10;;;2.13;;
4023;SDS011;2026;51.002;13.668;2024-02-14T03:11:48;3.27;;;1.80;;
4023;SDS011;2026;51.002;13.668;2024-02-14T03:16:51;4.50;;;2.30;;
4023;SDS011;2026;51.002;13.668;2024-02-14T03:21:54;3.10;;;1.87;;
4023;SDS011;2026;51.002;13.668;2024-02-14T03:26:59;2.60;;;2.10;;
4023;SDS011;2026;51.002;13.668;2024-02-14T03:32:02;3.03;;;2.27;;
4023;SDS011;2026;51.002;13.668;2024-02-14T03:37:06;3.10;;;1.90;;
4023;SDS011;2026;51.002;13.668;2024-02-14T03:42:10;2.30;;;1.53;;
4023;SDS011;2026;51.002;13.668;2024-02-14T03:47:13;2.93;;;1.67;;
4023;SDS011;2026;51.002;13.668;2024-02-14T03:52:16;2.17;;;1.80;;
4023;SDS011;2026;51.002;13.668;2024-02-14T03:57:20;3.30;;;1.70;;
4023;SDS011;2026;51.002;13.668;2024-02-14T04:02:23;4.20;;;2.07;;
4023;SDS011;2026;51.002;13.668;2024-02-14T04:07:27;2.40;;;1.67;;
4023;SDS011;2026;51.002;13.668;2024-02-14T04:12:32;2.43;;;1.50;;
4023;SDS011;2026;51.002;13.668;2024-02-14T04:17:35;3.50;;;1.50;;
4023;SDS011;2026;51.002;13.668;2024-02-14T04:22:38;3.60;;;1.73;;
4023;SDS011;2026;51.002;13.668;2024-02-14T04:27:42;2.70;;;1.33;;
4023;SDS011;2026;51.002;13.668;2024-02-14T04:32:45;2.80;;;1.50;;
4023;SDS011;2026;51.002;13.668;2024-02-14T04:37:48;3.70;;;1.70;;
4023;SDS011;2026;51.002;13.668;2024-02-14T04:42:54;3.17;;;1.90;;
4023;SDS011;2026;51.002;13.668;2024-02-14T04:47:57;5.07;;;2.27;;
4023;SDS011;2026;51.002;13.668;2024-02-14T04:53:00;3.13;;;1.27;;
4023;SDS011;2026;51.002;13.668;2024-02-14T04:58:04;3.30;;;1.60;;
4023;SDS011;2026;51.002;13.668;2024-02-14T05:03:08;2.90;;;1.47;;
4023;SDS011;2026;51.002;13.668;2024-02-14T05:08:11;2.23;;;1.40;;
4023;SDS011;2026;51.002;13.668;2024-02-14T05:13:15;2.83;;;1.40;;
4023;SDS011;2026;51.002;13.668;2024-02-14T05:18:18;2.63;;;1.37;;
4023;SDS011;2026;51.002;13.668;2024-02-14T05:23:21;3.30;;;1.47;;
4023;SDS011;2026;51.002;13.668;2024-02-14T05:28:26;3.73;;;1.80;;
4023;SDS011;2026;51.002;13.668;2024-02-14T05:33:29;3.13;;;1.67;;
4023;SDS011;2026;51.002;13.668;2024-02-14T05:38:32;2.43;;;1.63;;
4023;SDS011;2026;51.002;13.668;2024-02-14T05:43:37;1.50;;;1.40;;
4023;SDS011;2026;51.002;13.668;2024-02-14T05:48:40;2.20;;;1.10;;
4023;SDS011;2026;51.002;13.668;2024-02-14T05:53:43;2.20;;;1.57;;
4023;SDS011;2026;51.002;13.668;2024-02-14T05:58:48;1.80;;;1.30;;
4023;SDS011;2026;51.002;13.668;2024-02-14T06:03:51;4.73;;;1.67;;
4023;SDS011;2026;51.002;13.668;2024-02-14T06:08:54;3.33;;;1.80;;
4023;SDS011;2026;51.002;13.668;2024-02-14T06:14:00;2.10;;;1.20;;
4023;SDS011;2026;51.002;13.668;2024-02-14T06:19:04;6.33;;;1.50;;
4023;SDS011;2026;51.002;13.668;2024-02-14T06:24:08;1.23;;;1.13;;
4023;SDS011;2026;51.002;13.668;2024-02-14T06:29:16;1.77;;;1.23;;
4023;SDS011;2026;51.002;13.668;2024-02-14T06:34:19;4.27;;;1.30;;
4023;SDS011;2026;51.002;13.668;2024-02-14T06:39:22;5.00;;;1.40;;
4023;SDS011;2026;51.002;13.668;2024-02-14T06:44:27;2.47;;;1.77;;
4023;SDS011;2026;51.002;13.668;2024-02-14T06:49:30;2.60;;;1.40;;
4023;SDS011;2026;51.002;13.668;2024-02-14T06:54:33;3.30;;;1.50;;
4023;SDS011;2026;51.002;13.668;2024-02-14T06:59:37;2.00;;;1.30;;
4023;SDS011;2026;51.002;13.668;2024-02-14T07:04:40;3.67;;;1.60;;
4023;SDS011;2026;51.002;13.668;2024-02-14T07:09:43;1.50;;;1.40;;
4023;SDS011;2026;51.002;13.668;2024-02-14T07:14:47;1.50;;;1.30;;
4023;SDS011;2026;51.002;13.668;2024-02-14T07:19:50;5.00;;;1.47;;
4023;SDS011;2026;51.002;13.668;2024-02-14T07:24:53;3.80;;;1.20;;
4023;SDS011;2026;51.002;13.668;2024-02-14T07:29:58;1.43;;;1.30;;
4023;SDS011;2026;51.002;13.668;2024-02-14T07:35:02;2.20;;;1.60;;
4023;SDS011;2026;51.002;13.668;2024-02-14T07:40:05;3.40;;;1.50;;
4023;SDS011;2026;51.002;13.668;2024-02-14T07:45:10;3.33;;;1.50;;
4023;SDS011;2026;51.002;13.668;2024-02-14T07:50:14;2.30;;;1.20;;
4023;SDS011;2026;51.002;13.668;2024-02-14T07:55:17;2.53;;;2.03;;
4023;SDS011;2026;51.002;13.668;2024-02-14T08:00:22;5.20;;;2.20;;
4023;SDS011;2026;51.002;13.668;2024-02-14T08:05:25;1.30;;;1.20;;
4023;SDS011;2026;51.002;13.668;2024-02-14T08:10:28;1.93;;;1.40;;
4023;SDS011;2026;51.002;13.668;2024-02-14T08:15:33;2.70;;;1.20;;
4023;SDS011;2026;51.002;13.668;2024-02-14T08:20:39;4.43;;;1.83;;
4023;SDS011;2026;51.002;13.668;2024-02-14T08:25:42;1.93;;;1.27;;
4023;SDS011;2026;51.002;13.668;2024-02-14T08:30:47;2.80;;;1.60;;
4023;SDS011;2026;51.002;13.668;2024-02-14T08:35:50;1.97;;;1.43;;
4023;SDS011;2026;51.002;13.668;2024-02-14T08:40:55;2.87;;;1.57;;
4023;SDS011;2026;51.002;13.668;2024-02-14T08:45:59;1.97;;;1.40;;
4023;SDS011;2026;51.002;13.668;2024-02-14T08:51:02;4.60;;;1.63;;
4023;SDS011;2026;51.002;13.668;2024-02-14T08:56:05;3.87;;;1.50;;
4023;SDS011;2026;51.002;13.668;2024-02-14T09:01:10;3.53;;;1.50;;
4023;SDS011;2026;51.002;13.668;2024-02-14T09:06:16;5.17;;;1.80;;
4023;SDS011;2026;51.002;13.668;2024-02-14T09:11:20;5.90;;;1.90;;
4023;SDS011;2026;51.002;13.668;2024-02-14T09:16:25;2.87;;;1.30;;
4023;SDS011;2026;51.002;13.668;2024-02-14T09:21:28;3.10;;;1.77;;
4023;SDS011;2026;51.002;13.668;2024-02-14T09:26:31;5.40;;;1.70;;
4023;SDS011;2026;51.002;13.668;2024-02-14T09:31:35;4.17;;;1.60;;
4023;SDS011;2026;51.002;13.668;2024-02-14T09:36:38;2.97;;;1.70;;
4023;SDS011;2026;51.002;13.668;2024-02-14T09:41:41;4.70;;;1.60;;
4023;SDS011;2026;51.002;13.668;2024-02-14T09:46:49;6.77;;;2.40;;
4023;SDS011;2026;51.002;13.668;2024-02-14T09:51:52;2.80;;;2.00;;
4023;SDS011;2026;51.002;13.668;2024-02-14T09:56:56;2.20;;;1.50;;
4023;SDS011;2026;51.002;13.668;2024-02-14T10:02:01;2.33;;;1.80;;
4023;SDS011;2026;51.002;13.668;2024-02-14T10:07:05;1.80;;;1.33;;
4023;SDS011;2026;51.002;13.668;2024-02-14T10:12:08;3.43;;;1.50;;
4023;SDS011;2026;51.002;13.668;2024-02-14T10:17:18;1.73;;;1.30;;
4023;SDS011;2026;51.002;13.668;2024-02-14T10:22:21;3.13;;;1.57;;
4023;SDS011;2026;51.002;13.668;2024-02-14T10:27:24;4.30;;;1.57;;
4023;SDS011;2026;51.002;13.668;2024-02-14T10:32:29;2.17;;;1.50;;
4023;SDS011;2026;51.002;13.668;2024-02-14T10:37:32;2.07;;;1.70;;
4023;SDS011;2026;51.002;13.668;2024-02-14T10:42:35;7.80;;;1.40;;
4023;SDS011;2026;51.002;13.668;2024-02-14T10:47:40;1.43;;;1.33;;
4023;SDS011;2026;51.002;13.668;2024-02-14T10:52:47;1.57;;;1.33;;
4023;SDS011;2026;51.002;13.668;2024-02-14T10:57:51;2.17;;;1.40;;
4023;SDS011;2026;51.002;13.668;2024-02-14T11:02:57;2.43;;;1.60;;
4023;SDS011;2026;51.002;13.668;2024-02-14T11:08:07;1.63;;;1.30;;
4023;SDS011;2026;51.002;13.668;2024-02-14T11:13:12;5.97;;;2.17;;
4023;SDS011;2026;51.002;13.668;2024-02-14T11:18:25;3.53;;;1.60;;
4023;SDS011;2026;51.002;13.668;2024-02-14T11:23:32;1.30;;;1.20;;
4023;SDS011;2026;51.002;13.668;2024-02-14T11:28:36;3.50;;;1.40;;
4023;SDS011;2026;51.002;13.668;2024-02-14T11:33:42;3.03;;;1.30;;
4023;SDS011;2026;51.002;13.668;2024-02-14T11:38:45;2.30;;;1.40;;
4023;SDS011;2026;51.002;13.668;2024-02-14T11:43:50;1.67;;;1.20;;
4023;SDS011;2026;51.002;13.668;2024-02-14T11:48:55;1.73;;;1.33;;
4023;SDS011;2026;51.002;13.668;2024-02-14T11:53:59;1.53;;;1.37;;
4023;SDS011;2026;51.002;13.668;2024-02-14T11:59:06;1.40;;;1.30;;
4023;SDS011;2026;51.002;13.668;2024-02-14T12:04:12;1.47;;;1.27;;
4023;SDS011;2026;51.002;13.668;2024-02-14T12:09:15;2.87;;;1.57;;
4023;SDS011;2026;51.002;13.668;2024-02-14T12:14:18;1.50;;;1.40;;
4023;SDS011;2026;51.002;13.668;2024-02-14T12:19:27;1.70;;;1.40;;
4023;SDS011;2026;51.002;13.668;2024-02-14T12:24:33;2.97;;;1.63;;
4023;SDS011;2026;51.002;13.668;2024-02-14T12:29:38;1.40;;;1.27;;
4023;SDS011;2026;51.002;13.668;2024-02-14T12:34:42;2.00;;;1.23;;
4023;SDS011;2026;51.002;13.668;2024-02-14T12:39:47;2.50;;;1.23;;
4023;SDS011;2026;51.002;13.668;2024-02-14T12:44:50;2.27;;;1.40;;
4023;SDS011;2026;51.002;13.668;2024-02-14T12:49:54;1.23;;;1.13;;
4023;SDS011;2026;51.002;13.668;2024-02-14T12:54:57;1.60;;;1.17;;
4023;SDS011;2026;51.002;13.668;2024-02-14T13:00:00;1.63;;;1.50;;
4023;SDS011;2026;51.002;13.668;2024-02-14T13:05:07;2.17;;;1.50;;
4023;SDS011;2026;51.002;13.668;2024-02-14T13:10:10;1.80;;;1.33;;
4023;SDS011;2026;51.002;13.668;2024-02-14T13:15:13;2.23;;;1.40;;
4023;SDS011;2026;51.002;13.668;2024-02-14T13:20:18;2.23;;;1.40;;
4023;SDS011;2026;51.002;13.668;2024-02-14T13:25:22;2.70;;;1.40;;
4023;SDS011;2026;51.002;13.668;2024-02-14T13:30:28;3.70;;;1.57;;
4023;SDS011;2026;51.002;13.668;2024-02-14T13:35:33;2.43;;;1.40;;
4023;SDS011;2026;51.002;13.668;2024-02-14T13:40:39;4.23;;;1.63;;
4023;SDS011;2026;51.002;13.668;2024-02-14T13:45:42;2.40;;;1.37;;
4023;SDS011;2026;51.002;13.668;2024-02-14T13:50:48;4.07;;;1.53;;
4023;SDS011;2026;51.002;13.668;2024-02-14T13:55:52;2.10;;;1.70;;
4023;SDS011;2026;51.002;13.668;2024-02-14T14:00:57;3.87;;;1.70;;
4023;SDS011;2026;51.002;13.668;2024-02-14T14:06:02;2.20;;;1.50;;
4023;SDS011;2026;51.002;13.668;2024-02-14T14:11:07;1.93;;;1.50;;
4023;SDS011;2026;51.002;13.668;2024-02-14T14:16:10;1.70;;;1.60;;
4023;SDS011;2026;51.002;13.668;2024-02-14T14:21:14;2.70;;;1.70;;
4023;SDS011;2026;51.002;13.668;2024-02-14T14:26:18;2.30;;;1.43;;
4023;SDS011;2026;51.002;13.668;2024-02-14T14:31:21;2.10;;;1.50;;
4023;SDS011;2026;51.002;13.668;2024-02-14T14:36:27;2.20;;;1.70;;
4023;SDS011;2026;51.002;13.668;2024-02-14T14:41:30;2.40;;;1.40;;
4023;SDS011;2026;51.002;13.668;2024-02-14T14:46:33;2.07;;;1.50;;
4023;SDS011;2026;51.002;13.668;2024-02-14T14:51:38;3.60;;;2.67;;
4023;SDS011;2026;51.002;13.668;2024-02-14T14:56:41;3.57;;;2.23;;
4023;SDS011;2026;51.002;13.668;2024-02-14T15:01:44;2.37;;;1.60;;
4023;SDS011;2026;51.002;13.668;2024-02-14T15:06:48;6.03;;;3.10;;
4023;SDS011;2026;51.002;13.668;2024-02-14T15:11:54;6.40;;;5.80;;
4023;SDS011;2026;51.002;13.668;2024-02-14T15:16:58;2.17;;;1.73;;
4023;SDS011;2026;51.002;13.668;2024-02-14T15:22:03;2.23;;;1.80;;
4023;SDS011;2026;51.002;13.668;2024-02-14T15:27:06;2.23;;;1.70;;
4023;SDS011;2026;51.002;13.668;2024-02-14T15:32:15;2.03;;;1.50;;
4023;SDS011;2026;51.002;13.668;2024-02-14T15:37:38;3.30;;;2.80;;
4023;SDS011;2026;51.002;13.668;2024-02-14T15:42:43;5.37;;;3.07;;
4023;SDS011;2026;51.002;13.668;2024-02-14T15:47:46;3.47;;;3.03;;
4023;SDS011;2026;51.002;13.668;2024-02-14T15:52:50;3.83;;;2.03;;
4023;SDS011;2026;51.002;13.668;2024-02-14T15:57:55;6.47;;;3.13;;
4023;SDS011;2026;51.002;13.668;2024-02-14T16:02:59;3.17;;;2.23;;
4023;SDS011;2026;51.002;13.668;2024-02-14T16:08:05;4.97;;;2.97;;
4023;SDS011;2026;51.002;13.668;2024-02-14T16:13:08;3.27;;;2.20;;
4023;SDS011;2026;51.002;13.668;2024-02-14T16:18:11;2.17;;;1.83;;
4023;SDS011;2026;51.002;13.668;2024-02-14T16:23:16;3.40;;;1.87;;
4023;SDS011;2026;51.002;13.668;2024-02-14T16:28:19;1.80;;;1.67;;
4023;SDS011;2026;51.002;13.668;2024-02-14T16:33:22;4.77;;;2.00;;
4023;SDS011;2026;51.002;13.668;2024-02-14T16:38:27;2.10;;;1.90;;
4023;SDS011;2026;51.002;13.668;2024-02-14T16:43:30;2.07;;;1.87;;
4023;SDS011;2026;51.002;13.668;2024-02-14T16:48:33;4.10;;;1.80;;
4023;SDS011;2026;51.002;13.668;2024-02-14T16:53:37;3.40;;;2.00;;
4023;SDS011;2026;51.002;13.668;2024-02-14T16:58:40;3.23;;;1.70;;
4023;SDS011;2026;51.002;13.668;2024-02-14T17:03:43;2.10;;;1.90;;
4023;SDS011;2026;51.002;13.668;2024-02-14T17:08:59;2.20;;;2.00;;
4023;SDS011;2026;51.002;13.668;2024-02-14T17:14:04;2.33;;;2.10;;
4023;SDS011;2026;51.002;13.668;2024-02-14T17:19:10;2.57;;;2.03;;
4023;SDS011;2026;51.002;13.668;2024-02-14T17:24:14;2.80;;;2.40;;
4023;SDS011;2026;51.002;13.668;2024-02-14T17:29:17;3.30;;;2.50;;
4023;SDS011;2026;51.002;13.668;2024-02-14T17:34:20;4.60;;;2.00;;
4023;SDS011;2026;51.002;13.668;2024-02-14T17:39:27;4.53;;;2.97;;
4023;SDS011;2026;51.002;13.668;2024-02-14T17:44:31;2.27;;;2.07;;
4023;SDS011;2026;51.002;13.668;2024-02-14T17:49:34;5.40;;;2.63;;
4023;SDS011;2026;51.002;13.668;2024-02-14T17:54:38;3.90;;;2.40;;
4023;SDS011;2026;51.002;13.668;2024-02-14T17:59:41;4.67;;;2.47;;
4023;SDS011;2026;51.002;13.668;2024-02-14T18:04:45;3.33;;;2.50;;
4023;SDS011;2026;51.002;13.668;2024-02-14T18:09:49;2.87;;;2.47;;
4023;SDS011;2026;51.002;13.668;2024-02-14T18:14:52;2.63;;;2.43;;
4023;SDS011;2026;51.002;13.668;2024-02-14T18:19:55;4.20;;;2.33;;
4023;SDS011;2026;51.002;13.668;2024-02-14T18:24:59;3.17;;;2.80;;
4023;SDS011;2026;51.002;13.668;2024-02-14T18:30:03;5.53;;;2.60;;
4023;SDS011;2026;51.002;13.668;2024-02-14T18:35:06;2.83;;;2.37;;
4023;SDS011;2026;51.002;13.668;2024-02-14T18:40:12;6.70;;;2.63;;
4023;SDS011;2026;51.002;13.668;2024-02-14T18:45:15;8.90;;;2.30;;
4023;SDS011;2026;51.002;13.668;2024-02-14T18:50:18;3.90;;;2.50;;
4023;SDS011;2026;51.002;13.668;2024-02-14T18:55:22;5.00;;;2.73;;
4023;SDS011;2026;51.002;13.668;2024-02-14T19:00:25;4.30;;;2.80;;
4023;SDS011;2026;51.002;13.668;2024-02-14T19:05:28;3.43;;;2.77;;
4023;SDS011;2026;51.002;13.668;2024-02-14T19:10:33;3.00;;;2.43;;
4023;SDS011;2026;51.002;13.668;2024-02-14T19:15:36;3.60;;;2.80;;
4023;SDS011;2026;51.002;13.668;2024-02-14T19:20:40;2.70;;;2.33;;
4023;SDS011;2026;51.002;13.668;2024-02-14T19:25:47;5.17;;;2.63;;
4023;SDS011;2026;51.002;13.668;2024-02-14T19:30:54;6.03;;;2.40;;
4023;SDS011;2026;51.002;13.668;2024-02-14T19:35:57;3.10;;;2.07;;
4023;SDS011;2026;51.002;13.668;2024-02-14T19:41:02;2.80;;;2.60;;
4023;SDS011;2026;51.002;13.668;2024-02-14T19:46:05;2.30;;;2.10;;
4023;SDS011;2026;51.002;13.668;2024-02-14T19:51:09;3.50;;;3.00;;
4023;SDS011;2026;51.002;13.668;2024-02-14T19:56:13;3.87;;;2.33;;
4023;SDS011;2026;51.002;13.668;2024-02-14T20:01:16;3.93;;;2.53;;
4023;SDS011;2026;51.002;13.668;2024-02-14T20:06:19;3.03;;;2.23;;
4023;SDS011;2026;51.002;13.668;2024-02-14T20:11:23;3.17;;;2.77;;
4023;SDS011;2026;51.002;13.668;2024-02-14T20:16:27;3.40;;;2.50;;
4023;SDS011;2026;51.002;13.668;2024-02-14T20:21:32;2.90;;;2.23;;
4023;SDS011;2026;51.002;13.668;2024-02-14T20:26:37;2.70;;;2.30;;
4023;SDS011;2026;51.002;13.668;2024-02-14T20:31:40;2.70;;;2.30;;
4023;SDS011;2026;51.002;13.668;2024-02-14T20:36:43;2.23;;;2.03;;
4023;SDS011;2026;51.002;13.668;2024-02-14T20:41:48;4.90;;;2.13;;
4023;SDS011;2026;51.002;13.668;2024-02-14T20:46:51;2.50;;;1.97;;
4023;SDS011;2026;51.002;13.668;2024-02-14T20:51:54;2.03;;;1.70;;
4023;SDS011;2026;51.002;13.668;2024-02-14T20:56:58;3.00;;;2.13;;
4023;SDS011;2026;51.002;13.668;2024-02-14T21:02:01;2.67;;;2.20;;
4023;SDS011;2026;51.002;13.668;2024-02-14T21:07:04;2.77;;;2.00;;
4023;SDS011;2026;51.002;13.668;2024-02-14T21:12:09;2.83;;;1.80;;
4023;SDS011;2026;51.002;13.668;2024-02-14T21:17:12;2.10;;;1.90;;
4023;SDS011;2026;51.002;13.668;2024-02-14T21:22:16;3.50;;;1.80;;
4023;SDS011;2026;51.002;13.668;2024-02-14T21:27:20;5.67;;;2.30;;
4023;SDS011;2026;51.002;13.668;2024-02-14T21:32:23;2.50;;;2.00;;
4023;SDS011;2026;51.002;13.668;2024-02-14T21:37:27;1.77;;;1.67;;
4023;SDS011;2026;51.002;13.668;2024-02-14T21:42:31;2.87;;;1.93;;
4023;SDS011;2026;51.002;13.668;2024-02-14T21:47:35;2.17;;;1.97;;
4023;SDS011;2026;51.002;13.668;2024-02-14T21:52:39;2.70;;;1.70;;
4023;SDS011;2026;51.002;13.668;2024-02-14T21:57:43;2.90;;;1.73;;
4023;SDS011;2026;51.002;13.668;2024-02-14T22:02:46;1.70;;;1.60;;
4023;SDS011;2026;51.002;13.668;2024-02-14T22:07:52;2.53;;;1.87;;
4023;SDS011;2026;51.002;13.668;2024-02-14T22:12:56;2.03;;;1.83;;
4023;SDS011;2026;51.002;13.668;2024-02-14T22:18:00;2.37;;;1.67;;
4023;SDS011;2026;51.002;13.668;2024-02-14T22:23:03;1.73;;;1.60;;
4023;SDS011;2026;51.002;13.668;2024-02-14T22:28:09;1.60;;;1.50;;
4023;SDS011;2026;51.002;13.668;2024-02-14T22:33:12;2.00;;;1.80;;
4023;SDS011;2026;51.002;13.668;2024-02-14T22:38:16;2.13;;;1.90;;
4023;SDS011;2026;51.002;13.668;2024-02-14T22:43:21;2.23;;;2.00;;
4023;SDS011;2026;51.002;13.668;2024-02-14T22:48:24;2.40;;;1.87;;
4023;SDS011;2026;51.002;13.668;2024-02-14T22:53:28;1.90;;;1.70;;
4023;SDS011;2026;51.002;13.668;2024-02-14T22:58:32;2.43;;;2.00;;
4023;SDS011;2026;51.002;13.668;2024-02-14T23:03:36;1.87;;;1.60;;
4023;SDS011;2026;51.002;13.668;2024-02-14T23:08:39;1.90;;;1.80;;
4023;SDS011;2026;51.002;13.668;2024-02-14T23:13:43;2.43;;;1.80;;
4023;SDS011;2026;51.002;13.668;2024-02-14T23:18:46;2.47;;;1.93;;
4023;SDS011;2026;51.002;13.668;2024-02-14T23:23:49;1.83;;;1.73;;
4023;SDS011;2026;51.002;13.668;2024-02-14T23:28:54;2.80;;;1.80;;
4023;SDS011;2026;51.002;13.668;2024-02-14T23:33:57;1.43;;;1.33;;
4023;SDS011;2026;51.002;13.668;2024-02-14T23:39:01;2.10;;;1.80;;
4023;SDS011;2026;51.002;13.668;2024-02-14T23:44:06;1.70;;;1.47;;
4023;SDS011;2026;51.002;13.668;2024-02-14T23:49:10;1.43;;;1.33;;
4023;SDS011;2026;51.002;13.668;2024-02-14T23:54:13;1.40;;;1.30;;
4023;SDS011;2026;51.002;13.668;2024-02-14T23:59:18;1.30;;;1.20;;
